Monaghan, Ireland
Current Conditions -  °F | °C
As of 7:50 PM on Saturday 25 Oct 2014 (Local Time) from EGAA Reporting Station
Broken Clouds Broken Clouds  
Wind Chill: 52°   Ceiling: 4400
Heat Index: 52°   Visibility: 6mi
Dew Point: 46°   Wind: 15mph
Humidity: 82%   Direction: 220°SW
Pressure: 29.77"   Gusts: NA
Location:  54.25°N, 6.97°W
Report Text: EGAA 251950Z 22013KT 9999 FEW023 SCT028 BKN044 11/08 Q1008
Loading
Personal Weather Stations






























Interactive Weather Map
Tropical Storm Tracking
New forecast layout! Learn more

10-Day Weather Forecast

Advertisements
Track Severe Weather on mobile